createdAt,value
2019-03-21T00:01:08.643Z,9.90
2019-03-21T00:03:38.248Z,10.10
2019-03-21T00:06:10.920Z,10.10
2019-03-21T00:08:40.526Z,10.10
2019-03-21T00:11:29.872Z,10.20
2019-03-21T00:14:08.708Z,10.40
2019-03-21T00:16:38.299Z,10.20
2019-03-21T00:19:07.894Z,10.00
2019-03-21T00:21:37.507Z,9.90
2019-03-21T00:24:07.099Z,9.80
2019-03-21T00:26:36.711Z,9.90
2019-03-21T00:29:06.307Z,10.10
2019-03-21T00:31:35.947Z,10.20
2019-03-21T00:34:05.569Z,10.10
2019-03-21T00:36:35.193Z,9.80
2019-03-21T00:39:07.497Z,9.60
2019-03-21T00:41:37.100Z,9.60
2019-03-21T00:44:17.549Z,9.50
2019-03-21T00:46:38.027Z,9.50
2019-03-21T00:49:07.615Z,9.60
2019-03-21T00:51:37.218Z,9.90
2019-03-21T00:54:06.819Z,9.80
2019-03-21T00:56:36.419Z,9.60
2019-03-21T00:59:06.027Z,9.60
2019-03-21T01:01:35.641Z,9.50
2019-03-21T01:04:05.260Z,9.50
2019-03-21T01:06:34.848Z,9.70
2019-03-21T01:09:07.550Z,9.90
2019-03-21T01:11:37.144Z,9.90
2019-03-21T01:14:06.767Z,9.90
2019-03-21T01:16:36.394Z,10.00
2019-03-21T01:19:06.136Z,9.90
2019-03-21T01:21:35.779Z,9.60
2019-03-21T01:24:05.451Z,9.50
2019-03-21T01:26:35.041Z,9.60
2019-03-21T01:29:04.730Z,9.50
2019-03-21T01:31:34.315Z,9.40
2019-03-21T01:34:04.011Z,9.20
2019-03-21T01:36:33.771Z,9.20
2019-03-21T01:39:04.038Z,9.20
2019-03-21T01:41:33.641Z,9.20
2019-03-21T01:44:03.243Z,9.20
2019-03-21T01:46:32.843Z,9.30
2019-03-21T01:49:02.447Z,9.50
2019-03-21T01:51:32.055Z,9.70
2019-03-21T01:54:01.721Z,9.70
2019-03-21T01:56:31.648Z,9.70
2019-03-21T01:59:01.262Z,9.60
2019-03-21T02:01:30.888Z,9.40
2019-03-21T02:04:00.527Z,9.20
2019-03-21T02:06:30.115Z,9.10
2019-03-21T02:08:59.730Z,9.30
2019-03-21T02:11:29.372Z,9.50
2019-03-21T02:13:59.072Z,9.50
2019-03-21T02:16:28.674Z,9.50
2019-03-21T02:18:58.295Z,9.20
2019-03-21T02:21:27.892Z,8.90
2019-03-21T02:23:57.494Z,9.00
2019-03-21T02:26:27.129Z,9.00
2019-03-21T02:28:56.741Z,9.20
2019-03-21T02:31:26.336Z,9.40
2019-03-21T02:33:55.956Z,9.60
2019-03-21T02:36:25.616Z,9.60
2019-03-21T02:38:55.226Z,9.50
2019-03-21T02:41:25.630Z,9.40
2019-03-21T02:43:55.806Z,9.50
2019-03-21T02:46:25.407Z,9.30
2019-03-21T02:48:55.570Z,9.00
2019-03-21T02:51:25.684Z,8.90
2019-03-21T02:53:55.377Z,8.80
2019-03-21T02:56:26.544Z,8.80
2019-03-21T02:58:56.760Z,8.80
2019-03-21T03:01:26.345Z,8.80
2019-03-21T03:03:56.004Z,8.70
2019-03-21T03:06:25.739Z,8.70
2019-03-21T03:08:55.444Z,8.90
2019-03-21T03:11:25.736Z,9.00
2019-03-21T03:13:55.718Z,9.00
2019-03-21T03:16:25.328Z,9.10
2019-03-21T03:18:55.028Z,9.10
2019-03-21T03:21:24.636Z,9.30
2019-03-21T03:23:54.247Z,9.30
2019-03-21T03:26:23.853Z,9.40
2019-03-21T03:28:53.476Z,9.30
2019-03-21T03:31:23.145Z,9.30
2019-03-21T03:33:52.851Z,9.20
2019-03-21T03:36:22.453Z,9.20
2019-03-21T03:38:52.047Z,9.20
2019-03-21T03:41:22.388Z,9.10
2019-03-21T03:43:52.035Z,9.10
2019-03-21T03:46:22.191Z,9.00
2019-03-21T03:48:51.814Z,9.00
2019-03-21T03:51:21.418Z,9.00
2019-03-21T03:53:52.112Z,9.00
2019-03-21T03:56:21.853Z,8.90
2019-03-21T03:58:54.519Z,8.70
2019-03-21T04:01:24.203Z,8.50
2019-03-21T04:03:53.813Z,8.60
2019-03-21T04:06:23.483Z,8.50
2019-03-21T04:08:53.152Z,8.70
2019-03-21T04:11:22.763Z,8.90
2019-03-21T04:13:52.367Z,8.80
2019-03-21T04:16:22.193Z,9.00
2019-03-21T04:18:51.797Z,9.00
2019-03-21T04:21:21.459Z,8.90
2019-03-21T04:23:51.090Z,8.60
2019-03-21T04:26:26.226Z,8.80
2019-03-21T04:28:55.825Z,9.00
2019-03-21T04:31:25.467Z,8.80
2019-03-21T04:33:58.189Z,8.90
2019-03-21T04:36:27.818Z,8.80
2019-03-21T04:38:57.428Z,8.50
2019-03-21T04:41:27.170Z,8.40
2019-03-21T04:43:56.751Z,8.50
2019-03-21T04:46:26.383Z,8.40
2019-03-21T04:48:56.006Z,8.20
2019-03-21T04:51:25.624Z,8.20
2019-03-21T04:53:55.300Z,8.30
2019-03-21T04:56:25.031Z,8.10
2019-03-21T04:58:54.658Z,8.00
2019-03-21T05:01:24.345Z,8.30
2019-03-21T05:03:53.948Z,8.40
2019-03-21T05:06:23.601Z,8.50
2019-03-21T05:08:53.203Z,8.70
2019-03-21T05:11:22.833Z,8.70
2019-03-21T05:13:52.426Z,8.70
2019-03-21T05:16:22.027Z,8.60
2019-03-21T05:18:59.450Z,8.60
2019-03-21T05:21:29.067Z,8.50
2019-03-21T05:23:58.670Z,8.30
2019-03-21T05:26:28.835Z,8.20
2019-03-21T05:28:58.433Z,8.30
2019-03-21T05:31:35.891Z,8.10
2019-03-21T05:34:05.655Z,8.10
2019-03-21T05:36:35.261Z,8.30
2019-03-21T05:39:08.033Z,8.40
2019-03-21T05:41:37.639Z,8.10
2019-03-21T05:44:25.560Z,7.90
2019-03-21T05:46:55.183Z,8.10
2019-03-21T05:49:24.791Z,8.40
2019-03-21T05:51:54.438Z,8.30
2019-03-21T05:54:24.034Z,7.90
2019-03-21T05:56:53.684Z,7.90
2019-03-21T05:59:23.278Z,7.90
2019-03-21T06:01:52.937Z,7.80
2019-03-21T06:04:22.533Z,8.10
2019-03-21T06:06:58.095Z,8.10
2019-03-21T06:09:27.692Z,8.20
2019-03-21T06:12:02.520Z,8.20
2019-03-21T06:14:35.191Z,8.00
2019-03-21T06:17:04.783Z,7.90
2019-03-21T06:19:49.468Z,8.00
2019-03-21T06:22:27.956Z,8.30
2019-03-21T06:25:09.740Z,8.60
2019-03-21T06:27:39.382Z,8.60
2019-03-21T06:30:09.250Z,8.50
2019-03-21T06:32:38.907Z,8.40
2019-03-21T06:35:11.664Z,8.40
2019-03-21T06:37:41.253Z,8.40
2019-03-21T06:40:10.863Z,8.70
2019-03-21T06:42:40.466Z,8.90
2019-03-21T06:45:10.157Z,8.90
2019-03-21T06:47:39.770Z,8.90
2019-03-21T06:50:09.450Z,9.10
2019-03-21T06:52:39.056Z,9.10
2019-03-21T06:55:10.852Z,8.90
2019-03-21T06:57:40.460Z,9.00
2019-03-21T07:00:11.451Z,9.10
2019-03-21T07:02:41.043Z,9.00
2019-03-21T07:05:10.912Z,9.10
2019-03-21T07:07:40.512Z,9.30
2019-03-21T07:10:10.963Z,9.30
2019-03-21T07:12:40.603Z,9.40
2019-03-21T07:15:11.564Z,9.50
2019-03-21T07:17:41.233Z,9.80
2019-03-21T07:20:12.692Z,9.80
2019-03-21T07:22:42.289Z,9.90
2019-03-21T07:25:12.248Z,10.00
2019-03-21T07:27:41.883Z,10.20
2019-03-21T07:30:14.442Z,10.30
2019-03-21T07:32:44.702Z,10.40
2019-03-21T07:35:14.394Z,10.40
2019-03-21T07:37:44.455Z,10.30
2019-03-21T07:40:14.730Z,10.40
2019-03-21T07:42:44.331Z,10.70
2019-03-21T07:45:14.094Z,10.80
2019-03-21T07:47:43.732Z,10.90
2019-03-21T07:50:14.681Z,11.00
2019-03-21T07:52:44.290Z,11.00
2019-03-21T07:55:14.163Z,11.10
2019-03-21T07:57:43.776Z,11.30
2019-03-21T08:00:19.725Z,11.30
2019-03-21T08:02:49.341Z,11.40
2019-03-21T16:55:47.970Z,17.70
2019-03-21T16:58:17.644Z,17.60
2019-03-21T17:00:47.354Z,17.40
2019-03-21T17:03:17.022Z,17.00
2019-03-21T17:05:46.876Z,16.60
2019-03-21T17:08:16.527Z,16.50
2019-03-21T17:10:46.503Z,16.40
2019-03-21T17:13:16.290Z,16.10
2019-03-21T17:15:45.936Z,15.90
2019-03-21T17:18:15.552Z,15.80
2019-03-21T17:20:45.147Z,15.80
2019-03-21T17:23:14.776Z,15.70
2019-03-21T17:25:44.496Z,15.80
2019-03-21T17:28:14.226Z,15.70
2019-03-21T17:31:03.734Z,15.70
2019-03-21T17:33:33.369Z,15.70
2019-03-21T17:36:02.976Z,15.60
2019-03-21T17:38:32.595Z,15.50
2019-03-21T17:41:02.262Z,15.30
2019-03-21T17:43:31.819Z,15.20
2019-03-21T17:46:04.422Z,15.20
2019-03-21T17:48:34.016Z,15.20
2019-03-21T17:51:03.686Z,15.10
2019-03-21T17:53:33.307Z,15.10
2019-03-21T17:56:04.144Z,15.00
2019-03-21T17:58:33.740Z,15.00
2019-03-21T18:01:04.698Z,14.90
2019-03-21T18:03:34.379Z,14.70
2019-03-21T18:06:04.080Z,14.80
2019-03-21T18:08:33.698Z,14.70
2019-03-21T18:11:04.194Z,14.80
2019-03-21T18:13:33.840Z,14.70
2019-03-21T18:16:03.590Z,14.80
2019-03-21T18:18:33.188Z,14.70
2019-03-21T18:21:05.362Z,14.60
2019-03-21T18:23:35.082Z,14.60
2019-03-21T18:26:04.691Z,14.50
2019-03-21T18:28:34.296Z,14.50
2019-03-21T18:31:03.983Z,14.50
2019-03-21T18:33:33.611Z,14.50
2019-03-21T18:36:03.386Z,14.50
2019-03-21T18:38:32.993Z,14.50
2019-03-21T18:41:03.426Z,14.40
2019-03-21T18:43:33.026Z,14.30
2019-03-21T18:46:02.709Z,14.40
2019-03-21T18:48:32.290Z,14.40
2019-03-21T18:51:04.821Z,14.40
2019-03-21T18:53:34.502Z,14.40
2019-03-21T18:56:04.994Z,14.40
2019-03-21T18:58:34.594Z,14.30
2019-03-21T19:01:04.223Z,14.10
2019-03-21T19:03:33.820Z,14.10
2019-03-21T19:06:04.313Z,14.10
2019-03-21T19:08:34.015Z,14.10
2019-03-21T19:11:04.087Z,14.00
2019-03-21T19:13:33.743Z,14.00
2019-03-21T19:16:05.364Z,14.10
2019-03-21T19:18:35.014Z,14.00
2019-03-21T19:21:04.827Z,13.80
2019-03-21T19:23:34.447Z,13.80
2019-03-21T19:26:04.183Z,13.60
2019-03-21T19:28:33.851Z,13.60
2019-03-21T19:31:03.511Z,13.40
2019-03-21T19:33:33.182Z,13.40
2019-03-21T19:36:03.951Z,13.40
2019-03-21T19:38:33.554Z,13.30
2019-03-21T19:41:04.705Z,13.10
2019-03-21T19:43:34.326Z,13.10
2019-03-21T19:46:04.009Z,13.10
2019-03-21T19:48:33.616Z,13.00
2019-03-21T19:51:03.254Z,12.90
2019-03-21T19:53:34.593Z,12.80
2019-03-21T19:56:08.663Z,12.80
2019-03-21T19:58:35.951Z,12.90
2019-03-21T20:01:05.716Z,12.80
2019-03-21T20:03:35.411Z,12.70
2019-03-21T20:06:05.079Z,12.70
2019-03-21T20:08:34.727Z,12.70
2019-03-21T20:11:04.306Z,12.50
2019-03-21T20:13:34.083Z,12.50
2019-03-21T20:16:03.736Z,12.50
2019-03-21T20:18:33.377Z,12.40
2019-03-21T20:21:03.056Z,12.30
2019-03-21T20:23:32.687Z,12.30
2019-03-21T20:26:02.350Z,12.40
2019-03-21T20:28:31.946Z,12.30
2019-03-21T20:31:02.327Z,12.30
2019-03-21T20:33:32.026Z,12.20
2019-03-21T20:36:01.753Z,12.10
2019-03-21T20:38:31.444Z,12.00
2019-03-21T20:41:01.105Z,12.00
2019-03-21T20:43:30.733Z,11.90
2019-03-21T20:46:00.332Z,11.90
2019-03-21T20:48:28.961Z,11.80
2019-03-21T20:50:58.746Z,11.70
2019-03-21T20:53:28.347Z,11.70
2019-03-21T20:55:58.799Z,11.70
2019-03-21T20:58:28.426Z,11.60
2019-03-21T21:00:58.130Z,11.80
2019-03-21T21:03:27.734Z,11.80
2019-03-21T21:05:57.378Z,11.70
2019-03-21T21:08:27.008Z,11.80
2019-03-21T21:10:56.637Z,11.70
2019-03-21T21:13:26.252Z,11.60
2019-03-21T21:15:55.946Z,11.50
2019-03-21T21:18:25.582Z,11.60
2019-03-21T21:20:55.182Z,11.70
2019-03-21T21:23:24.811Z,11.60
2019-03-21T21:26:05.043Z,11.60
2019-03-21T21:28:27.428Z,11.40
2019-03-21T21:30:57.033Z,11.40
2019-03-21T21:33:26.726Z,11.30
2019-03-21T21:35:56.361Z,11.30
2019-03-21T21:38:26.084Z,11.20
2019-03-21T21:40:55.703Z,11.30
2019-03-21T21:43:25.319Z,11.20
2019-03-21T21:45:55.030Z,11.20
2019-03-21T21:48:24.651Z,11.20
2019-03-21T21:50:54.347Z,11.10
2019-03-21T21:53:24.059Z,11.00
2019-03-21T21:55:53.663Z,11.00
2019-03-21T21:58:23.257Z,11.00
2019-03-21T22:00:52.889Z,10.90
2019-03-21T22:03:22.502Z,10.90
2019-03-21T22:05:52.144Z,10.80
2019-03-21T22:08:21.753Z,11.00
2019-03-21T22:10:51.369Z,11.10
2019-03-21T22:13:21.017Z,11.20
2019-03-21T22:15:50.627Z,11.10
2019-03-21T22:18:20.241Z,11.10
2019-03-21T22:20:49.918Z,11.20
2019-03-21T22:23:19.538Z,11.20
2019-03-21T22:25:49.164Z,11.10
2019-03-21T22:28:18.848Z,11.20
2019-03-21T22:30:48.550Z,11.20
2019-03-21T22:33:18.155Z,11.20
2019-03-21T22:35:47.791Z,11.10
2019-03-21T22:38:17.439Z,11.10
2019-03-21T22:40:47.042Z,11.10
2019-03-21T22:43:16.781Z,11.20
2019-03-21T22:45:46.434Z,11.30
2019-03-21T22:48:16.011Z,11.20
2019-03-21T22:50:45.652Z,11.10
2019-03-21T22:53:15.228Z,11.10
2019-03-21T22:55:44.863Z,11.10
2019-03-21T22:58:14.495Z,11.00
2019-03-21T23:00:46.443Z,10.90
2019-03-21T23:03:16.076Z,11.00
2019-03-21T23:05:45.682Z,10.90
2019-03-21T23:08:15.327Z,10.80
2019-03-21T23:10:45.295Z,10.80
2019-03-21T23:13:15.006Z,10.80
2019-03-21T23:15:44.711Z,10.60
2019-03-21T23:18:14.333Z,10.70
2019-03-21T23:20:43.954Z,10.60
2019-03-21T23:23:13.571Z,10.60
2019-03-21T23:25:43.261Z,10.60
2019-03-21T23:28:12.967Z,10.60
2019-03-21T23:30:42.602Z,10.40
2019-03-21T23:33:12.294Z,10.30
2019-03-21T23:35:41.899Z,10.50
2019-03-21T23:38:11.643Z,10.60
2019-03-21T23:40:41.270Z,10.60
2019-03-21T23:43:10.890Z,10.60
2019-03-21T23:45:40.569Z,10.60
2019-03-21T23:48:10.225Z,10.60
2019-03-21T23:50:39.930Z,10.60
2019-03-21T23:53:09.528Z,10.60
2019-03-21T23:55:39.161Z,10.50
2019-03-21T23:58:08.787Z,10.50
